sensor_id;sensor_type;location;lat;lon;timestamp;temperature;humidity
25200;DHT22;33094;48.782;9.162;2022-07-23T00:00:49;25.40;98.00
25200;DHT22;33094;48.782;9.162;2022-07-23T00:03:15;25.30;98.20
25200;DHT22;33094;48.782;9.162;2022-07-23T00:05:40;25.20;98.50
25200;DHT22;33094;48.782;9.162;2022-07-23T00:08:06;25.10;98.80
25200;DHT22;33094;48.782;9.162;2022-07-23T00:10:32;25.10;99.10
25200;DHT22;33094;48.782;9.162;2022-07-23T00:12:58;25.00;99.30
25200;DHT22;33094;48.782;9.162;2022-07-23T00:15:23;25.10;99.20
25200;DHT22;33094;48.782;9.162;2022-07-23T00:17:49;25.00;99.00
25200;DHT22;33094;48.782;9.162;2022-07-23T00:20:14;25.10;99.00
25200;DHT22;33094;48.782;9.162;2022-07-23T00:22:47;24.90;99.00
25200;DHT22;33094;48.782;9.162;2022-07-23T00:25:12;24.90;99.00
25200;DHT22;33094;48.782;9.162;2022-07-23T00:27:38;24.90;99.30
25200;DHT22;33094;48.782;9.162;2022-07-23T00:30:04;24.80;99.50
25200;DHT22;33094;48.782;9.162;2022-07-23T00:32:29;24.70;99.60
25200;DHT22;33094;48.782;9.162;2022-07-23T00:34:55;24.70;99.80
25200;DHT22;33094;48.782;9.162;2022-07-23T00:37:21;24.60;99.80
25200;DHT22;33094;48.782;9.162;2022-07-23T00:39:46;24.50;99.90
25200;DHT22;33094;48.782;9.162;2022-07-23T00:42:12;24.50;99.90
25200;DHT22;33094;48.782;9.162;2022-07-23T00:44:37;24.80;99.90
25200;DHT22;33094;48.782;9.162;2022-07-23T00:47:03;23.40;99.90
25200;DHT22;33094;48.782;9.162;2022-07-23T00:49:31;23.20;99.90
25200;DHT22;33094;48.782;9.162;2022-07-23T00:51:57;23.40;99.90
25200;DHT22;33094;48.782;9.162;2022-07-23T00:54:23;23.30;99.90
25200;DHT22;33094;48.782;9.162;2022-07-23T00:56:49;23.30;99.90
25200;DHT22;33094;48.782;9.162;2022-07-23T00:59:15;23.30;99.90
25200;DHT22;33094;48.782;9.162;2022-07-23T04:05:31;22.40;99.90
25200;DHT22;33094;48.782;9.162;2022-07-23T06:01:54;23.50;99.90
25200;DHT22;33094;48.782;9.162;2022-07-23T06:04:19;23.40;99.90
25200;DHT22;33094;48.782;9.162;2022-07-23T06:06:45;23.40;99.90
25200;DHT22;33094;48.782;9.162;2022-07-23T06:09:10;23.40;99.90
25200;DHT22;33094;48.782;9.162;2022-07-23T06:11:39;23.40;99.90
25200;DHT22;33094;48.782;9.162;2022-07-23T06:14:04;23.40;99.90
25200;DHT22;33094;48.782;9.162;2022-07-23T06:16:30;23.50;99.90
25200;DHT22;33094;48.782;9.162;2022-07-23T06:18:55;23.40;99.90
25200;DHT22;33094;48.782;9.162;2022-07-23T06:21:21;23.50;99.90
25200;DHT22;33094;48.782;9.162;2022-07-23T06:23:46;23.80;99.90
25200;DHT22;33094;48.782;9.162;2022-07-23T06:26:12;23.90;99.90
25200;DHT22;33094;48.782;9.162;2022-07-23T06:28:37;24.00;99.90
25200;DHT22;33094;48.782;9.162;2022-07-23T06:31:03;24.00;99.90
25200;DHT22;33094;48.782;9.162;2022-07-23T06:33:28;24.10;99.90
25200;DHT22;33094;48.782;9.162;2022-07-23T06:35:54;24.20;99.90
25200;DHT22;33094;48.782;9.162;2022-07-23T06:38:19;24.30;99.90
25200;DHT22;33094;48.782;9.162;2022-07-23T06:40:45;24.10;99.90
25200;DHT22;33094;48.782;9.162;2022-07-23T06:43:11;24.10;99.90
25200;DHT22;33094;48.782;9.162;2022-07-23T06:45:36;24.20;99.90
25200;DHT22;33094;48.782;9.162;2022-07-23T06:48:02;24.20;99.90
25200;DHT22;33094;48.782;9.162;2022-07-23T06:50:28;24.50;99.90
25200;DHT22;33094;48.782;9.162;2022-07-23T06:52:53;24.60;99.90
25200;DHT22;33094;48.782;9.162;2022-07-23T06:55:19;24.20;99.90
25200;DHT22;33094;48.782;9.162;2022-07-23T06:57:44;23.90;99.90
25200;DHT22;33094;48.782;9.162;2022-07-23T07:00:10;23.90;99.90
25200;DHT22;33094;48.782;9.162;2022-07-23T07:02:36;24.00;99.90
25200;DHT22;33094;48.782;9.162;2022-07-23T07:05:02;24.10;99.90
25200;DHT22;33094;48.782;9.162;2022-07-23T07:07:27;24.10;99.90
25200;DHT22;33094;48.782;9.162;2022-07-23T07:09:53;24.00;99.90
25200;DHT22;33094;48.782;9.162;2022-07-23T07:12:19;24.10;99.90
25200;DHT22;33094;48.782;9.162;2022-07-23T07:14:44;24.00;99.90
25200;DHT22;33094;48.782;9.162;2022-07-23T07:17:10;23.90;99.90
25200;DHT22;33094;48.782;9.162;2022-07-23T07:19:36;23.70;99.90
25200;DHT22;33094;48.782;9.162;2022-07-23T07:22:02;23.30;99.90
25200;DHT22;33094;48.782;9.162;2022-07-23T07:24:27;23.20;99.90
25200;DHT22;33094;48.782;9.162;2022-07-23T07:26:53;23.10;99.90
25200;DHT22;33094;48.782;9.162;2022-07-23T07:29:18;23.10;99.90
25200;DHT22;33094;48.782;9.162;2022-07-23T07:31:44;23.20;99.90
25200;DHT22;33094;48.782;9.162;2022-07-23T07:34:09;23.10;99.90
25200;DHT22;33094;48.782;9.162;2022-07-23T07:36:35;22.70;99.90
25200;DHT22;33094;48.782;9.162;2022-07-23T07:39:04;22.50;99.90
25200;DHT22;33094;48.782;9.162;2022-07-23T07:41:30;22.60;99.90
25200;DHT22;33094;48.782;9.162;2022-07-23T07:43:56;22.90;99.90
25200;DHT22;33094;48.782;9.162;2022-07-23T07:46:21;23.30;99.90
25200;DHT22;33094;48.782;9.162;2022-07-23T07:48:52;23.20;99.90
25200;DHT22;33094;48.782;9.162;2022-07-23T07:51:17;22.70;99.90
25200;DHT22;33094;48.782;9.162;2022-07-23T07:53:43;22.50;99.90
25200;DHT22;33094;48.782;9.162;2022-07-23T07:56:08;22.70;99.90
25200;DHT22;33094;48.782;9.162;2022-07-23T07:58:34;22.50;99.90
25200;DHT22;33094;48.782;9.162;2022-07-23T08:00:59;22.30;99.90
25200;DHT22;33094;48.782;9.162;2022-07-23T08:03:25;22.70;99.90
25200;DHT22;33094;48.782;9.162;2022-07-23T08:05:51;23.10;99.90
25200;DHT22;33094;48.782;9.162;2022-07-23T08:08:16;23.10;99.90
25200;DHT22;33094;48.782;9.162;2022-07-23T08:10:43;23.30;99.90
25200;DHT22;33094;48.782;9.162;2022-07-23T08:13:11;23.30;99.90
25200;DHT22;33094;48.782;9.162;2022-07-23T08:15:37;23.50;99.90
25200;DHT22;33094;48.782;9.162;2022-07-23T08:18:03;24.00;99.90
25200;DHT22;33094;48.782;9.162;2022-07-23T08:20:28;24.10;99.90
25200;DHT22;33094;48.782;9.162;2022-07-23T08:22:55;24.00;99.90
25200;DHT22;33094;48.782;9.162;2022-07-23T08:25:22;23.60;99.90
25200;DHT22;33094;48.782;9.162;2022-07-23T08:27:48;22.90;99.90
25200;DHT22;33094;48.782;9.162;2022-07-23T08:30:14;22.90;99.90
25200;DHT22;33094;48.782;9.162;2022-07-23T08:35:40;23.10;99.90
25200;DHT22;33094;48.782;9.162;2022-07-23T08:38:07;23.30;99.90
25200;DHT22;33094;48.782;9.162;2022-07-23T08:40:34;23.30;99.90
25200;DHT22;33094;48.782;9.162;2022-07-23T08:43:00;23.60;99.90
25200;DHT22;33094;48.782;9.162;2022-07-23T08:45:29;25.70;99.90
25200;DHT22;33094;48.782;9.162;2022-07-23T08:47:56;24.60;99.90
25200;DHT22;33094;48.782;9.162;2022-07-23T08:50:23;26.30;99.90
25200;DHT22;33094;48.782;9.162;2022-07-23T08:52:50;27.50;99.90
25200;DHT22;33094;48.782;9.162;2022-07-23T08:55:16;27.90;99.90
25200;DHT22;33094;48.782;9.162;2022-07-23T08:57:42;28.10;99.90
25200;DHT22;33094;48.782;9.162;2022-07-23T09:00:07;27.30;99.90
25200;DHT22;33094;48.782;9.162;2022-07-23T09:02:38;27.30;99.90
25200;DHT22;33094;48.782;9.162;2022-07-23T09:05:04;27.80;99.90
25200;DHT22;33094;48.782;9.162;2022-07-23T09:07:29;27.90;99.90
25200;DHT22;33094;48.782;9.162;2022-07-23T09:10:08;28.30;99.90
25200;DHT22;33094;48.782;9.162;2022-07-23T09:12:34;27.90;99.90
25200;DHT22;33094;48.782;9.162;2022-07-23T09:15:08;29.10;99.30
25200;DHT22;33094;48.782;9.162;2022-07-23T09:17:38;29.00;99.50
25200;DHT22;33094;48.782;9.162;2022-07-23T09:20:14;28.70;99.40
25200;DHT22;33094;48.782;9.162;2022-07-23T09:22:44;29.20;98.50
25200;DHT22;33094;48.782;9.162;2022-07-23T09:25:17;29.60;96.90
25200;DHT22;33094;48.782;9.162;2022-07-23T09:30:24;29.20;96.30
25200;DHT22;33094;48.782;9.162;2022-07-23T09:38:12;28.20;97.20
25200;DHT22;33094;48.782;9.162;2022-07-23T09:40:37;30.20;95.20
25200;DHT22;33094;48.782;9.162;2022-07-23T09:43:03;29.80;95.20
25200;DHT22;33094;48.782;9.162;2022-07-23T09:45:28;30.70;94.40
25200;DHT22;33094;48.782;9.162;2022-07-23T09:48:09;30.00;94.50
25200;DHT22;33094;48.782;9.162;2022-07-23T09:50:35;30.40;94.10
25200;DHT22;33094;48.782;9.162;2022-07-23T09:53:01;30.80;93.20
25200;DHT22;33094;48.782;9.162;2022-07-23T09:55:30;31.20;92.50
25200;DHT22;33094;48.782;9.162;2022-07-23T09:58:00;31.50;92.20
25200;DHT22;33094;48.782;9.162;2022-07-23T10:00:26;30.90;92.60
25200;DHT22;33094;48.782;9.162;2022-07-23T10:02:52;30.60;92.60
25200;DHT22;33094;48.782;9.162;2022-07-23T10:05:19;30.60;93.80
25200;DHT22;33094;48.782;9.162;2022-07-23T10:07:44;31.00;93.00
25200;DHT22;33094;48.782;9.162;2022-07-23T10:10:10;31.90;92.30
25200;DHT22;33094;48.782;9.162;2022-07-23T10:12:36;31.10;91.80
25200;DHT22;33094;48.782;9.162;2022-07-23T10:15:02;31.20;91.90
25200;DHT22;33094;48.782;9.162;2022-07-23T10:17:28;31.40;91.60
25200;DHT22;33094;48.782;9.162;2022-07-23T10:19:54;30.20;92.20
25200;DHT22;33094;48.782;9.162;2022-07-23T10:22:21;29.10;93.70
25200;DHT22;33094;48.782;9.162;2022-07-23T10:29:42;30.80;91.50
25200;DHT22;33094;48.782;9.162;2022-07-23T10:32:16;31.20;91.10
25200;DHT22;33094;48.782;9.162;2022-07-23T10:37:18;30.20;91.80
25200;DHT22;33094;48.782;9.162;2022-07-23T10:40:08;31.40;90.80
25200;DHT22;33094;48.782;9.162;2022-07-23T10:42:33;30.20;91.40
25200;DHT22;33094;48.782;9.162;2022-07-23T10:45:03;31.10;91.30
25200;DHT22;33094;48.782;9.162;2022-07-23T10:47:45;30.90;91.10
25200;DHT22;33094;48.782;9.162;2022-07-23T10:52:46;32.10;87.80
25200;DHT22;33094;48.782;9.162;2022-07-23T10:55:38;31.30;88.70
25200;DHT22;33094;48.782;9.162;2022-07-23T10:58:05;31.40;87.60
25200;DHT22;33094;48.782;9.162;2022-07-23T11:00:31;31.60;86.80
25200;DHT22;33094;48.782;9.162;2022-07-23T11:03:01;32.00;87.20
25200;DHT22;33094;48.782;9.162;2022-07-23T11:31:52;31.10;89.80
25200;DHT22;33094;48.782;9.162;2022-07-23T11:36:50;30.10;90.90
25200;DHT22;33094;48.782;9.162;2022-07-23T11:39:16;29.00;91.70
25200;DHT22;33094;48.782;9.162;2022-07-23T11:41:45;29.70;91.40
25200;DHT22;33094;48.782;9.162;2022-07-23T11:44:46;30.30;91.10
25200;DHT22;33094;48.782;9.162;2022-07-23T11:47:09;30.00;91.50
25200;DHT22;33094;48.782;9.162;2022-07-23T11:49:35;30.20;91.10
25200;DHT22;33094;48.782;9.162;2022-07-23T11:52:10;31.40;90.70
25200;DHT22;33094;48.782;9.162;2022-07-23T11:54:37;32.50;88.70
25200;DHT22;33094;48.782;9.162;2022-07-23T11:57:03;32.60;89.60
25200;DHT22;33094;48.782;9.162;2022-07-23T11:59:30;32.30;88.70
25200;DHT22;33094;48.782;9.162;2022-07-23T12:04:45;32.70;89.40
25200;DHT22;33094;48.782;9.162;2022-07-23T12:07:26;32.70;88.00
25200;DHT22;33094;48.782;9.162;2022-07-23T12:09:52;30.20;90.90
25200;DHT22;33094;48.782;9.162;2022-07-23T12:12:17;29.70;91.80
25200;DHT22;33094;48.782;9.162;2022-07-23T12:17:14;32.20;89.30
25200;DHT22;33094;48.782;9.162;2022-07-23T12:19:40;32.00;89.40
25200;DHT22;33094;48.782;9.162;2022-07-23T12:22:06;31.40;90.30
25200;DHT22;33094;48.782;9.162;2022-07-23T12:24:33;32.00;89.70
25200;DHT22;33094;48.782;9.162;2022-07-23T12:27:19;32.10;89.90
25200;DHT22;33094;48.782;9.162;2022-07-23T12:29:45;32.10;89.40
25200;DHT22;33094;48.782;9.162;2022-07-23T12:32:17;31.70;88.80
25200;DHT22;33094;48.782;9.162;2022-07-23T12:34:43;31.60;87.90
25200;DHT22;33094;48.782;9.162;2022-07-23T12:39:36;31.30;89.20
25200;DHT22;33094;48.782;9.162;2022-07-23T12:42:02;32.00;88.30
25200;DHT22;33094;48.782;9.162;2022-07-23T12:44:27;31.70;88.80
25200;DHT22;33094;48.782;9.162;2022-07-23T12:47:01;31.50;88.50
25200;DHT22;33094;48.782;9.162;2022-07-23T12:49:35;31.60;88.90
25200;DHT22;33094;48.782;9.162;2022-07-23T12:52:01;32.10;89.20
25200;DHT22;33094;48.782;9.162;2022-07-23T12:54:40;31.60;89.10
25200;DHT22;33094;48.782;9.162;2022-07-23T12:57:05;31.80;89.10
25200;DHT22;33094;48.782;9.162;2022-07-23T12:59:31;30.80;90.10
25200;DHT22;33094;48.782;9.162;2022-07-23T13:01:57;30.40;91.00
25200;DHT22;33094;48.782;9.162;2022-07-23T13:04:26;29.90;91.50
25200;DHT22;33094;48.782;9.162;2022-07-23T13:06:56;29.50;91.80
25200;DHT22;33094;48.782;9.162;2022-07-23T13:09:24;29.60;91.00
25200;DHT22;33094;48.782;9.162;2022-07-23T13:11:50;30.00;91.40
25200;DHT22;33094;48.782;9.162;2022-07-23T13:14:17;30.30;91.40
25200;DHT22;33094;48.782;9.162;2022-07-23T13:16:43;30.40;91.10
25200;DHT22;33094;48.782;9.162;2022-07-23T13:19:09;29.60;91.00
25200;DHT22;33094;48.782;9.162;2022-07-23T13:21:34;29.50;90.60
25200;DHT22;33094;48.782;9.162;2022-07-23T13:24:00;29.70;90.80
25200;DHT22;33094;48.782;9.162;2022-07-23T13:26:26;30.00;90.60
25200;DHT22;33094;48.782;9.162;2022-07-23T13:28:52;30.10;90.70
25200;DHT22;33094;48.782;9.162;2022-07-23T13:31:18;30.30;90.30
25200;DHT22;33094;48.782;9.162;2022-07-23T13:33:43;30.30;90.30
25200;DHT22;33094;48.782;9.162;2022-07-23T13:51:43;30.20;91.30
25200;DHT22;33094;48.782;9.162;2022-07-23T13:54:08;30.30;91.10
25200;DHT22;33094;48.782;9.162;2022-07-23T13:56:34;30.50;90.90
25200;DHT22;33094;48.782;9.162;2022-07-23T13:59:00;30.00;90.60
25200;DHT22;33094;48.782;9.162;2022-07-23T14:04:24;27.90;90.30
25200;DHT22;33094;48.782;9.162;2022-07-23T14:32:53;30.30;89.70
25200;DHT22;33094;48.782;9.162;2022-07-23T14:35:19;30.50;89.40
25200;DHT22;33094;48.782;9.162;2022-07-23T14:37:45;30.90;88.70
25200;DHT22;33094;48.782;9.162;2022-07-23T14:40:14;31.10;89.00
25200;DHT22;33094;48.782;9.162;2022-07-23T14:42:39;30.60;88.90
25200;DHT22;33094;48.782;9.162;2022-07-23T14:45:05;30.10;90.00
25200;DHT22;33094;48.782;9.162;2022-07-23T14:47:31;30.00;90.10
25200;DHT22;33094;48.782;9.162;2022-07-23T14:49:57;30.20;89.20
25200;DHT22;33094;48.782;9.162;2022-07-23T15:00:11;30.20;88.10
25200;DHT22;33094;48.782;9.162;2022-07-23T15:02:38;30.60;87.20
25200;DHT22;33094;48.782;9.162;2022-07-23T15:42:12;29.70;90.10
25200;DHT22;33094;48.782;9.162;2022-07-23T15:49:50;29.50;89.60
25200;DHT22;33094;48.782;9.162;2022-07-23T15:57:39;29.60;89.60
25200;DHT22;33094;48.782;9.162;2022-07-23T16:00:20;29.80;88.80
25200;DHT22;33094;48.782;9.162;2022-07-23T16:02:46;29.80;89.40
25200;DHT22;33094;48.782;9.162;2022-07-23T16:05:12;29.70;89.70
25200;DHT22;33094;48.782;9.162;2022-07-23T16:10:30;29.50;90.00
25200;DHT22;33094;48.782;9.162;2022-07-23T16:12:56;29.60;90.20
25200;DHT22;33094;48.782;9.162;2022-07-23T16:17:57;29.60;90.20
25200;DHT22;33094;48.782;9.162;2022-07-23T16:59:14;28.60;91.90
25200;DHT22;33094;48.782;9.162;2022-07-23T17:06:51;28.30;92.80
25200;DHT22;33094;48.782;9.162;2022-07-23T17:09:36;28.30;92.80
25200;DHT22;33094;48.782;9.162;2022-07-23T17:12:05;28.00;92.90
25200;DHT22;33094;48.782;9.162;2022-07-23T17:14:33;28.00;92.90
25200;DHT22;33094;48.782;9.162;2022-07-23T17:35:21;27.90;94.70
25200;DHT22;33094;48.782;9.162;2022-07-23T17:43:01;27.70;94.50
25200;DHT22;33094;48.782;9.162;2022-07-23T18:04:19;27.10;96.00
25200;DHT22;33094;48.782;9.162;2022-07-23T18:06:44;27.00;96.20
25200;DHT22;33094;48.782;9.162;2022-07-23T18:09:11;27.00;96.40
25200;DHT22;33094;48.782;9.162;2022-07-23T18:11:37;27.00;96.70
25200;DHT22;33094;48.782;9.162;2022-07-23T18:14:08;26.70;96.70
25200;DHT22;33094;48.782;9.162;2022-07-23T18:16:34;26.80;96.80
25200;DHT22;33094;48.782;9.162;2022-07-23T18:19:00;26.70;96.90
25200;DHT22;33094;48.782;9.162;2022-07-23T18:21:25;26.70;97.20
25200;DHT22;33094;48.782;9.162;2022-07-23T18:23:51;26.60;97.20
25200;DHT22;33094;48.782;9.162;2022-07-23T18:26:17;26.70;97.00
25200;DHT22;33094;48.782;9.162;2022-07-23T18:28:43;26.60;97.10
25200;DHT22;33094;48.782;9.162;2022-07-23T18:31:08;26.60;97.20
25200;DHT22;33094;48.782;9.162;2022-07-23T18:33:34;26.70;97.10
25200;DHT22;33094;48.782;9.162;2022-07-23T18:35:59;26.60;97.30
25200;DHT22;33094;48.782;9.162;2022-07-23T18:38:25;26.60;97.40
25200;DHT22;33094;48.782;9.162;2022-07-23T18:40:51;26.60;97.40
25200;DHT22;33094;48.782;9.162;2022-07-23T18:43:16;26.60;97.50
25200;DHT22;33094;48.782;9.162;2022-07-23T18:45:42;26.60;97.40
25200;DHT22;33094;48.782;9.162;2022-07-23T18:48:08;26.60;97.60
25200;DHT22;33094;48.782;9.162;2022-07-23T18:50:33;26.60;97.80
25200;DHT22;33094;48.782;9.162;2022-07-23T18:52:59;26.60;98.10
25200;DHT22;33094;48.782;9.162;2022-07-23T18:55:25;26.60;98.00
25200;DHT22;33094;48.782;9.162;2022-07-23T18:57:51;26.60;98.20
25200;DHT22;33094;48.782;9.162;2022-07-23T19:00:17;26.60;98.20
25200;DHT22;33094;48.782;9.162;2022-07-23T19:02:43;26.40;98.10
25200;DHT22;33094;48.782;9.162;2022-07-23T19:05:09;26.40;98.00
25200;DHT22;33094;48.782;9.162;2022-07-23T19:07:35;26.40;98.20
25200;DHT22;33094;48.782;9.162;2022-07-23T19:10:02;26.40;98.30
25200;DHT22;33094;48.782;9.162;2022-07-23T19:12:28;26.30;98.30
25200;DHT22;33094;48.782;9.162;2022-07-23T19:14:53;26.30;98.60
25200;DHT22;33094;48.782;9.162;2022-07-23T19:17:19;26.20;98.80
25200;DHT22;33094;48.782;9.162;2022-07-23T19:19:44;26.20;99.00
25200;DHT22;33094;48.782;9.162;2022-07-23T19:22:10;26.30;99.20
25200;DHT22;33094;48.782;9.162;2022-07-23T19:24:35;26.30;99.10
25200;DHT22;33094;48.782;9.162;2022-07-23T19:27:03;26.20;99.20
25200;DHT22;33094;48.782;9.162;2022-07-23T19:29:29;26.20;99.40
25200;DHT22;33094;48.782;9.162;2022-07-23T19:31:55;26.10;99.60
25200;DHT22;33094;48.782;9.162;2022-07-23T19:34:21;26.00;99.90
25200;DHT22;33094;48.782;9.162;2022-07-23T19:36:46;26.00;99.80
25200;DHT22;33094;48.782;9.162;2022-07-23T19:39:12;26.00;99.90
25200;DHT22;33094;48.782;9.162;2022-07-23T19:41:37;25.90;99.90
25200;DHT22;33094;48.782;9.162;2022-07-23T19:44:03;25.90;99.90
25200;DHT22;33094;48.782;9.162;2022-07-23T19:46:29;25.80;99.90
25200;DHT22;33094;48.782;9.162;2022-07-23T19:48:54;25.90;99.90
25200;DHT22;33094;48.782;9.162;2022-07-23T19:51:20;25.90;99.90
25200;DHT22;33094;48.782;9.162;2022-07-23T19:53:47;25.90;99.90
25200;DHT22;33094;48.782;9.162;2022-07-23T19:56:14;25.90;99.90
25200;DHT22;33094;48.782;9.162;2022-07-23T19:58:41;25.90;99.90
25200;DHT22;33094;48.782;9.162;2022-07-23T20:01:06;25.90;99.90
25200;DHT22;33094;48.782;9.162;2022-07-23T20:03:32;25.90;99.90
25200;DHT22;33094;48.782;9.162;2022-07-23T20:05:57;25.90;99.90
25200;DHT22;33094;48.782;9.162;2022-07-23T20:08:23;25.90;99.90
25200;DHT22;33094;48.782;9.162;2022-07-23T20:10:49;25.90;99.90
25200;DHT22;33094;48.782;9.162;2022-07-23T20:13:14;25.80;99.90
25200;DHT22;33094;48.782;9.162;2022-07-23T20:15:42;25.80;99.90
25200;DHT22;33094;48.782;9.162;2022-07-23T20:18:07;25.90;99.90
25200;DHT22;33094;48.782;9.162;2022-07-23T20:20:33;25.80;99.90
25200;DHT22;33094;48.782;9.162;2022-07-23T20:22:58;25.80;99.90
25200;DHT22;33094;48.782;9.162;2022-07-23T20:25:24;25.70;99.90
25200;DHT22;33094;48.782;9.162;2022-07-23T20:27:49;25.70;99.90
25200;DHT22;33094;48.782;9.162;2022-07-23T20:30:15;25.70;99.90
25200;DHT22;33094;48.782;9.162;2022-07-23T20:32:40;25.70;99.90
25200;DHT22;33094;48.782;9.162;2022-07-23T20:35:06;25.70;99.90
25200;DHT22;33094;48.782;9.162;2022-07-23T20:37:32;25.70;99.90
25200;DHT22;33094;48.782;9.162;2022-07-23T20:39:59;25.70;99.90
25200;DHT22;33094;48.782;9.162;2022-07-23T20:42:24;25.60;99.90
25200;DHT22;33094;48.782;9.162;2022-07-23T20:44:50;25.60;99.90
25200;DHT22;33094;48.782;9.162;2022-07-23T20:47:16;25.60;99.90
25200;DHT22;33094;48.782;9.162;2022-07-23T20:49:42;25.50;99.90
25200;DHT22;33094;48.782;9.162;2022-07-23T20:52:09;25.50;99.90
25200;DHT22;33094;48.782;9.162;2022-07-23T20:54:35;25.60;99.90
25200;DHT22;33094;48.782;9.162;2022-07-23T20:57:01;25.40;99.90
25200;DHT22;33094;48.782;9.162;2022-07-23T20:59:26;25.30;99.90
25200;DHT22;33094;48.782;9.162;2022-07-23T21:01:52;26.50;99.90
25200;DHT22;33094;48.782;9.162;2022-07-23T21:04:17;25.20;99.90
25200;DHT22;33094;48.782;9.162;2022-07-23T21:06:43;25.10;99.90
25200;DHT22;33094;48.782;9.162;2022-07-23T21:09:08;25.10;99.90
25200;DHT22;33094;48.782;9.162;2022-07-23T21:11:37;25.10;99.90
25200;DHT22;33094;48.782;9.162;2022-07-23T21:14:05;25.00;99.90
25200;DHT22;33094;48.782;9.162;2022-07-23T21:16:31;25.00;99.90
25200;DHT22;33094;48.782;9.162;2022-07-23T21:18:56;25.00;99.90
25200;DHT22;33094;48.782;9.162;2022-07-23T21:21:22;25.00;99.90
25200;DHT22;33094;48.782;9.162;2022-07-23T21:23:48;24.90;99.90
25200;DHT22;33094;48.782;9.162;2022-07-23T21:26:16;24.90;99.90
25200;DHT22;33094;48.782;9.162;2022-07-23T21:28:42;24.90;99.90
25200;DHT22;33094;48.782;9.162;2022-07-23T21:31:08;24.80;99.90
25200;DHT22;33094;48.782;9.162;2022-07-23T21:33:34;24.80;99.90
25200;DHT22;33094;48.782;9.162;2022-07-23T21:36:00;26.20;99.90
25200;DHT22;33094;48.782;9.162;2022-07-23T21:38:25;24.80;99.90
25200;DHT22;33094;48.782;9.162;2022-07-23T21:40:51;24.70;99.90
25200;DHT22;33094;48.782;9.162;2022-07-23T21:43:17;24.70;99.90
25200;DHT22;33094;48.782;9.162;2022-07-23T21:45:43;24.70;99.90
25200;DHT22;33094;48.782;9.162;2022-07-23T21:48:09;24.60;99.90
25200;DHT22;33094;48.782;9.162;2022-07-23T21:50:34;24.60;99.90
25200;DHT22;33094;48.782;9.162;2022-07-23T21:53:00;24.60;99.90
25200;DHT22;33094;48.782;9.162;2022-07-23T21:55:25;24.60;99.90
25200;DHT22;33094;48.782;9.162;2022-07-23T21:57:53;24.60;99.90
25200;DHT22;33094;48.782;9.162;2022-07-23T22:00:19;24.50;99.90
25200;DHT22;33094;48.782;9.162;2022-07-23T22:02:51;24.40;99.90
25200;DHT22;33094;48.782;9.162;2022-07-23T22:05:17;24.40;99.90
25200;DHT22;33094;48.782;9.162;2022-07-23T22:07:42;24.40;99.90
25200;DHT22;33094;48.782;9.162;2022-07-23T22:10:08;24.30;99.90
25200;DHT22;33094;48.782;9.162;2022-07-23T22:12:35;24.30;99.90
25200;DHT22;33094;48.782;9.162;2022-07-23T22:15:01;24.20;99.90
25200;DHT22;33094;48.782;9.162;2022-07-23T22:17:26;24.20;99.90
25200;DHT22;33094;48.782;9.162;2022-07-23T22:19:52;24.20;99.90
25200;DHT22;33094;48.782;9.162;2022-07-23T22:22:17;24.20;99.90
25200;DHT22;33094;48.782;9.162;2022-07-23T22:24:43;24.10;99.90
25200;DHT22;33094;48.782;9.162;2022-07-23T22:27:08;24.20;99.90
25200;DHT22;33094;48.782;9.162;2022-07-23T22:29:34;24.10;99.90
25200;DHT22;33094;48.782;9.162;2022-07-23T22:31:59;24.10;99.90
25200;DHT22;33094;48.782;9.162;2022-07-23T22:34:25;24.00;99.90
25200;DHT22;33094;48.782;9.162;2022-07-23T22:36:50;24.00;99.90
25200;DHT22;33094;48.782;9.162;2022-07-23T22:39:16;23.90;99.90
25200;DHT22;33094;48.782;9.162;2022-07-23T22:41:41;24.50;99.90
25200;DHT22;33094;48.782;9.162;2022-07-23T22:44:07;23.80;99.90
25200;DHT22;33094;48.782;9.162;2022-07-23T22:46:33;23.80;99.90
25200;DHT22;33094;48.782;9.162;2022-07-23T22:48:58;23.80;99.90
25200;DHT22;33094;48.782;9.162;2022-07-23T22:51:24;23.70;99.90
25200;DHT22;33094;48.782;9.162;2022-07-23T22:53:49;23.60;99.90
25200;DHT22;33094;48.782;9.162;2022-07-23T22:56:15;23.50;99.90
25200;DHT22;33094;48.782;9.162;2022-07-23T22:58:40;23.60;99.90
25200;DHT22;33094;48.782;9.162;2022-07-23T23:01:06;23.60;99.90
25200;DHT22;33094;48.782;9.162;2022-07-23T23:03:31;23.50;99.90
25200;DHT22;33094;48.782;9.162;2022-07-23T23:05:57;23.40;99.90
25200;DHT22;33094;48.782;9.162;2022-07-23T23:08:22;23.40;99.90
25200;DHT22;33094;48.782;9.162;2022-07-23T23:10:48;23.30;99.90
25200;DHT22;33094;48.782;9.162;2022-07-23T23:13:13;23.30;99.90
25200;DHT22;33094;48.782;9.162;2022-07-23T23:15:39;23.30;99.90
25200;DHT22;33094;48.782;9.162;2022-07-23T23:18:04;23.10;99.90
25200;DHT22;33094;48.782;9.162;2022-07-23T23:20:30;23.10;99.90
25200;DHT22;33094;48.782;9.162;2022-07-23T23:22:55;23.30;99.90
25200;DHT22;33094;48.782;9.162;2022-07-23T23:25:21;23.10;99.90
25200;DHT22;33094;48.782;9.162;2022-07-23T23:27:46;23.00;99.90
25200;DHT22;33094;48.782;9.162;2022-07-23T23:30:12;23.00;99.90
25200;DHT22;33094;48.782;9.162;2022-07-23T23:32:38;22.90;99.90
25200;DHT22;33094;48.782;9.162;2022-07-23T23:35:06;22.90;99.90
25200;DHT22;33094;48.782;9.162;2022-07-23T23:37:31;22.90;99.90
25200;DHT22;33094;48.782;9.162;2022-07-23T23:39:57;22.90;99.90
25200;DHT22;33094;48.782;9.162;2022-07-23T23:42:22;22.90;99.90
25200;DHT22;33094;48.782;9.162;2022-07-23T23:44:48;22.80;99.90
25200;DHT22;33094;48.782;9.162;2022-07-23T23:47:13;22.70;99.90
25200;DHT22;33094;48.782;9.162;2022-07-23T23:49:39;22.70;99.90
25200;DHT22;33094;48.782;9.162;2022-07-23T23:52:07;22.70;99.90
25200;DHT22;33094;48.782;9.162;2022-07-23T23:54:33;22.70;99.90
25200;DHT22;33094;48.782;9.162;2022-07-23T23:56:58;22.70;99.90
25200;DHT22;33094;48.782;9.162;2022-07-23T23:59:24;22.60;99.90
